Time;durP1;ratioP1;P1;durP2;ratioP2;P2;SDS_P1;SDS_P2;PMS_P1;PMS_P2;Temp;Humidity;BMP_temperature;BMP_pressure;BME280_temperature;BME280_humidity;BME280_pressure;Samples;Min_cycle;Max_cycle;Signal;HPM_P1;HPM_P2
2023/01/20 00:01:36;;;;;;;56.00;50.40;;;;;;;-0.34;100.00;97143.96;108883;1297;22283;-89
2023/01/20 00:04:05;;;;;;;51.10;46.30;;;;;;;-0.33;100.00;97142.02;108893;1297;22887;-90
2023/01/20 00:06:33;;;;;;;51.90;46.90;;;;;;;-0.36;100.00;97142.98;108844;1297;22363;-89
2023/01/20 00:09:03;;;;;;;54.50;49.30;;;;;;;-0.38;100.00;97145.20;108857;1297;22445;-88
2023/01/20 00:11:32;;;;;;;57.90;51.90;;;;;;;-0.39;100.00;97147.34;108886;1286;22356;-87
2023/01/20 00:14:01;;;;;;;56.10;50.60;;;;;;;-0.43;100.00;97143.21;108636;1297;22438;-88
2023/01/20 00:16:30;;;;;;;57.10;51.40;;;;;;;-0.41;100.00;97141.02;108829;1297;22295;-90
2023/01/20 00:18:59;;;;;;;57.40;51.70;;;;;;;-0.38;100.00;97140.45;108861;1297;22855;-89
2023/01/20 00:21:26;;;;;;;58.40;52.90;;;;;;;-0.36;100.00;97145.79;108844;1294;23519;-87
2023/01/20 00:23:55;;;;;;;63.90;57.40;;;;;;;-0.35;100.00;97155.81;108862;1297;22465;-89
2023/01/20 00:26:23;;;;;;;56.80;51.10;;;;;;;-0.39;100.00;97153.91;108849;1297;22146;-90
2023/01/20 00:28:53;;;;;;;54.20;49.00;;;;;;;-0.43;100.00;97153.33;108853;1297;22222;-88
2023/01/20 00:31:27;;;;;;;49.50;44.60;;;;;;;-0.44;100.00;97157.55;108856;1297;22212;-84
2023/01/20 00:33:57;;;;;;;41.10;37.00;;;;;;;-0.49;100.00;97165.55;108881;1297;22222;-88
2023/01/20 00:36:27;;;;;;;41.60;37.60;;;;;;;-0.56;100.00;97166.36;108855;1278;22219;-89
2023/01/20 00:38:55;;;;;;;40.80;36.40;;;;;;;-0.59;100.00;97172.51;108869;1297;22963;-89
2023/01/20 00:41:23;;;;;;;38.70;34.90;;;;;;;-0.58;100.00;97177.13;108858;1289;23007;-90
2023/01/20 00:43:51;;;;;;;38.80;35.10;;;;;;;-0.58;100.00;97184.53;108854;1297;22125;-89
2023/01/20 00:46:21;;;;;;;40.40;36.40;;;;;;;-0.59;100.00;97183.02;108649;1297;22252;-91
2023/01/20 00:48:49;;;;;;;37.40;33.70;;;;;;;-0.61;100.00;97186.38;108853;1297;22160;-90
2023/01/20 00:51:17;;;;;;;37.20;33.60;;;;;;;-0.65;100.00;97183.38;108793;1297;22284;-91
2023/01/20 00:53:46;;;;;;;36.80;33.10;;;;;;;-0.64;100.00;97179.73;108852;1297;22290;-88
2023/01/20 00:56:14;;;;;;;36.20;32.80;;;;;;;-0.71;100.00;97180.44;108859;1297;22131;-90
2023/01/20 00:58:43;;;;;;;40.30;36.40;;;;;;;-0.74;100.00;97179.54;108683;1297;22272;-86
2023/01/20 01:01:12;;;;;;;38.10;34.40;;;;;;;-0.74;100.00;97184.09;108847;1297;22200;-89
2023/01/20 01:03:40;;;;;;;37.60;33.70;;;;;;;-0.73;100.00;97187.48;108741;1292;22254;-88
2023/01/20 01:06:17;;;;;;;35.80;32.40;;;;;;;-0.71;100.00;97183.62;108761;1297;22973;-89
2023/01/20 01:08:45;;;;;;;35.10;31.60;;;;;;;-0.67;100.00;97185.20;108761;1297;22276;-90
2023/01/20 01:11:13;;;;;;;38.20;34.50;;;;;;;-0.68;100.00;97192.91;108845;1290;23046;-91
2023/01/20 01:13:41;;;;;;;34.70;31.10;;;;;;;-0.70;100.00;97206.02;108858;1292;23531;-90
2023/01/20 01:16:14;;;;;;;36.70;32.90;;;;;;;-0.72;100.00;97212.17;108867;1292;22163;-91
2023/01/20 01:18:42;;;;;;;37.40;33.60;;;;;;;-0.68;100.00;97222.29;108657;1289;22407;-90
2023/01/20 01:21:13;;;;;;;41.10;37.00;;;;;;;-0.62;100.00;97230.73;108667;1297;22155;-89
2023/01/20 01:23:42;;;;;;;36.80;33.30;;;;;;;-0.57;100.00;97228.52;108845;1292;22307;-87
2023/01/20 01:26:10;;;;;;;39.30;35.40;;;;;;;-0.55;100.00;97221.99;108858;1297;23103;-87
2023/01/20 01:28:39;;;;;;;39.70;36.00;;;;;;;-0.54;100.00;97221.52;108878;1297;22228;-88
2023/01/20 01:31:08;;;;;;;38.20;34.40;;;;;;;-0.53;100.00;97216.67;108870;1297;22325;-88
2023/01/20 01:33:37;;;;;;;37.80;34.10;;;;;;;-0.47;100.00;97222.05;108432;1297;23562;-86
2023/01/20 01:36:07;;;;;;;35.10;31.50;;;;;;;-0.45;100.00;97217.20;108840;1297;22155;-88
2023/01/20 01:38:35;;;;;;;37.00;33.40;;;;;;;-0.46;100.00;97213.64;108838;1297;23043;-87
2023/01/20 01:41:03;;;;;;;37.20;33.70;;;;;;;-0.44;100.00;97211.33;108823;1297;22309;-87
2023/01/20 01:43:34;;;;;;;40.00;36.10;;;;;;;-0.48;100.00;97213.30;108848;1297;22233;-87
2023/01/20 01:46:03;;;;;;;45.00;40.30;;;;;;;-0.55;100.00;97212.83;108687;1297;22315;-88
2023/01/20 01:48:44;;;;;;;41.50;37.10;;;;;;;-0.61;100.00;97201.31;108664;1297;22204;-88
2023/01/20 01:51:18;;;;;;;41.30;37.30;;;;;;;-0.65;100.00;97185.54;108867;1295;22207;-88
2023/01/20 01:53:52;;;;;;;36.40;32.90;;;;;;;-0.73;100.00;97175.33;108830;1296;22249;-90
2023/01/20 01:56:22;;;;;;;;;;;;;;;-0.79;100.00;97171.16;108968;1296;22326;-90
2023/01/20 01:58:55;;;;;;;38.80;34.90;;;;;;;-0.88;100.00;97186.16;108929;1296;22226;-87
2023/01/20 02:01:24;;;;;;;38.00;34.10;;;;;;;-0.97;100.00;97208.68;108675;1296;22250;-90
2023/01/20 02:03:58;;;;;;;36.60;33.00;;;;;;;-0.93;100.00;97228.94;108977;1296;22234;-87
2023/01/20 02:06:31;;;;;;;42.30;38.20;;;;;;;-0.85;100.00;97226.16;108967;1296;22947;-87
2023/01/20 02:09:01;;;;;;;45.10;40.60;;;;;;;-0.83;100.00;97224.70;108955;1296;22116;-89
2023/01/20 02:11:34;;;;;;;43.30;38.90;;;;;;;-0.80;100.00;97210.63;108945;1296;22704;-90
2023/01/20 02:14:03;;;;;;;44.50;40.30;;;;;;;-0.82;100.00;97212.50;108822;1296;22946;-88
2023/01/20 02:16:30;;;;;;;42.80;38.50;;;;;;;-0.83;100.00;97217.34;108973;1296;22240;-89
2023/01/20 02:18:58;;;;;;;41.40;37.50;;;;;;;-0.82;100.00;97224.82;108839;1296;22258;-89
2023/01/20 02:21:57;;;;;;;42.40;38.40;;;;;;;-0.79;100.00;97219.64;108991;1296;23097;-88
2023/01/20 02:25:03;;;;;;;43.90;39.80;;;;;;;-0.73;100.00;97219.14;108999;1292;22249;-89
2023/01/20 02:27:46;;;;;;;46.20;41.80;;;;;;;-0.70;100.00;97223.38;108978;1296;22301;-88
2023/01/20 02:30:42;;;;;;;44.00;39.80;;;;;;;-0.67;100.00;97224.52;108986;1295;23073;-90
2023/01/20 02:33:23;;;;;;;41.90;37.70;;;;;;;-0.71;100.00;97212.02;109000;1296;22222;-91
2023/01/20 02:36:05;;;;;;;38.00;34.30;;;;;;;-0.82;100.00;97213.52;108995;1296;22339;-88
2023/01/20 02:38:45;;;;;;;42.40;38.10;;;;;;;-0.85;100.00;97218.98;109017;1296;22255;-90
2023/01/20 02:41:16;;;;;;;42.90;38.70;;;;;;;-0.84;100.00;97223.25;108976;1296;22950;-88
2023/01/20 02:43:51;;;;;;;42.20;38.10;;;;;;;-0.85;100.00;97231.64;108972;1296;22604;-89
2023/01/20 02:46:33;;;;;;;41.20;37.30;;;;;;;-0.88;100.00;97230.92;108773;1296;22875;-91
2023/01/20 02:49:30;;;;;;;46.80;42.30;;;;;;;-0.88;100.00;97223.41;108723;1292;22258;-87
2023/01/20 02:52:04;;;;;;;49.60;44.90;;;;;;;-0.94;100.00;97231.46;108838;1297;22121;-90
2023/01/20 02:54:36;;;;;;;45.50;41.00;;;;;;;-1.02;100.00;97240.14;108874;1297;22985;-88
2023/01/20 02:57:07;;;;;;;41.80;37.80;;;;;;;-1.05;100.00;97247.64;108930;1293;22346;-90
2023/01/20 02:59:41;;;;;;;43.70;39.70;;;;;;;-1.04;100.00;97238.88;108983;1292;22445;-89
2023/01/20 03:02:17;;;;;;;47.30;42.90;;;;;;;-1.05;99.98;97242.24;108936;1292;22238;-89
2023/01/20 03:04:55;;;;;;;51.90;47.20;;;;;;;-1.07;100.00;97245.86;108798;1296;22301;-87
2023/01/20 03:07:27;;;;;;;48.00;43.50;;;;;;;-1.12;99.93;97246.04;108905;1289;22420;-92
2023/01/20 03:10:01;;;;;;;50.00;45.30;;;;;;;-1.24;99.79;97250.48;109074;1296;22165;-90
2023/01/20 03:12:36;;;;;;;57.50;51.70;;;;;;;-1.37;99.63;97255.39;108902;1297;22246;-89
2023/01/20 03:15:05;;;;;;;54.10;48.80;;;;;;;-1.53;99.43;97252.94;108907;1297;22289;-89
2023/01/20 03:17:34;;;;;;;52.90;47.60;;;;;;;-1.71;99.20;97245.55;108877;1297;22274;-88
2023/01/20 03:20:02;;;;;;;46.90;42.30;;;;;;;-1.83;99.08;97250.80;108961;1283;22275;-86
2023/01/20 03:22:30;;;;;;;45.40;41.10;;;;;;;-1.95;99.01;97254.69;108944;1297;23134;-87
2023/01/20 03:25:00;;;;;;;47.00;42.50;;;;;;;-2.09;98.84;97254.46;109060;1297;22131;-87
2023/01/20 03:27:27;;;;;;;48.70;44.00;;;;;;;-2.22;99.03;97256.56;109099;1297;22242;-88
2023/01/20 03:29:55;;;;;;;47.70;43.10;;;;;;;-2.37;99.03;97256.11;109158;1292;22222;-88
2023/01/20 03:32:25;;;;;;;47.00;42.40;;;;;;;-2.51;98.94;97256.06;108926;1296;22913;-90
2023/01/20 03:34:54;;;;;;;44.90;40.50;;;;;;;-2.63;98.81;97261.13;108909;1297;22125;-88
2023/01/20 03:37:23;;;;;;;46.70;42.30;;;;;;;-2.68;99.03;97265.85;109000;1297;22278;-86
2023/01/20 03:39:51;;;;;;;46.40;42.00;;;;;;;-2.65;99.78;97264.09;108890;1297;22236;-86
2023/01/20 03:42:47;;;;;;;44.70;40.40;;;;;;;-2.61;99.82;97264.19;108871;1297;22147;-88
2023/01/20 03:45:36;;;;;;;51.50;46.80;;;;;;;-2.61;99.73;97271.36;108853;1297;23533;-85
2023/01/20 03:48:28;;;;;;;46.30;42.20;;;;;;;-2.65;99.67;97280.27;108877;1297;22255;-88
2023/01/20 03:51:11;;;;;;;51.00;46.00;;;;;;;-2.76;98.67;97279.08;108955;1297;22245;-85
2023/01/20 03:53:52;;;;;;;55.00;49.60;;;;;;;-2.86;98.69;97281.11;108689;1290;23105;-87
2023/01/20 03:56:35;;;;;;;44.60;40.50;;;;;;;-2.89;99.22;97279.77;108864;1297;22224;-86
2023/01/20 03:59:08;;;;;;;56.70;51.40;;;;;;;-2.89;98.75;97292.69;108970;1292;22132;-87
2023/01/20 04:01:40;;;;;;;58.20;52.90;;;;;;;-2.80;99.89;97296.44;109034;1297;22305;-90
2023/01/20 04:04:16;;;;;;;66.40;60.30;;;;;;;-2.82;98.85;97297.08;108988;1294;23032;-89
2023/01/20 04:06:47;;;;;;;75.00;68.20;;;;;;;-2.88;99.12;97303.37;108973;1292;22147;-89
2023/01/20 04:09:23;;;;;;;65.20;59.10;;;;;;;-2.94;98.86;97301.64;108734;1294;22399;-90
2023/01/20 04:11:52;;;;;;;59.30;53.40;;;;;;;-2.89;98.98;97298.76;108880;1297;22971;-89
2023/01/20 04:14:20;;;;;;;63.20;57.20;;;;;;;-2.81;99.45;97299.01;108818;1297;22134;-90
2023/01/20 04:16:52;;;;;;;67.50;61.10;;;;;;;-2.73;99.26;97299.52;108734;1297;22280;-89
2023/01/20 04:19:20;;;;;;;56.30;51.20;;;;;;;-2.68;99.08;97296.52;108708;1297;23096;-89
2023/01/20 04:21:55;;;;;;;54.00;49.00;;;;;;;-2.67;98.61;97299.27;108884;1297;22904;-90
2023/01/20 04:24:36;;;;;;;56.80;51.50;;;;;;;-2.73;98.75;97300.56;108865;1297;22920;-90
2023/01/20 04:27:04;;;;;;;56.60;51.20;;;;;;;-2.75;99.10;97302.31;108843;1297;23054;-87
2023/01/20 04:29:33;;;;;;;53.60;48.50;;;;;;;-2.70;99.13;97303.65;108837;1285;22260;-86
2023/01/20 04:32:02;;;;;;;54.30;49.10;;;;;;;-2.62;99.41;97308.41;108851;1297;23079;-89
2023/01/20 04:34:30;;;;;;;57.50;51.90;;;;;;;-2.53;99.34;97307.04;108727;1297;23023;-88
2023/01/20 04:36:58;;;;;;;58.80;53.00;;;;;;;-2.44;99.43;97311.72;108805;1297;22232;-89
2023/01/20 04:39:26;;;;;;;88.60;49.70;;;;;;;-2.37;99.40;97314.83;108895;1297;22236;-88
2023/01/20 04:41:53;;;;;;;71.10;50.70;;;;;;;-2.34;99.66;97319.13;108907;1297;22279;-89
2023/01/20 04:44:21;;;;;;;63.00;48.60;;;;;;;-2.33;99.50;97324.89;108912;1297;22305;-86
2023/01/20 04:46:49;;;;;;;53.50;47.00;;;;;;;-2.31;99.44;97328.64;108891;1280;22229;-88
2023/01/20 04:49:17;;;;;;;73.60;64.80;;;;;;;-2.26;99.40;97327.94;108939;1297;22220;-88
2023/01/20 04:51:45;;;;;;;53.60;47.80;;;;;;;-2.17;99.72;97335.06;108802;1297;22205;-86
2023/01/20 04:54:13;;;;;;;69.40;52.10;;;;;;;-2.16;99.76;97340.52;109269;1297;22297;-87
2023/01/20 04:56:42;;;;;;;58.90;49.60;;;;;;;-2.19;99.66;97337.81;109292;1297;22269;-88
2023/01/20 04:59:11;;;;;;;74.40;51.70;;;;;;;-2.18;99.77;97333.61;108966;1297;22242;-87
2023/01/20 05:01:39;;;;;;;63.70;49.40;;;;;;;-2.18;99.52;97334.50;108875;1297;22225;-88
2023/01/20 05:04:07;;;;;;;55.20;48.90;;;;;;;-2.23;99.55;97332.55;108739;1297;23016;-88
2023/01/20 05:06:35;;;;;;;52.60;47.20;;;;;;;-2.25;99.53;97336.52;108873;1297;22871;-86
2023/01/20 05:09:03;;;;;;;51.90;46.50;;;;;;;-2.20;99.92;97340.95;108863;1297;22357;-88
2023/01/20 05:11:31;;;;;;;53.10;47.90;;;;;;;-2.12;99.89;97352.45;108829;1297;22228;-88
2023/01/20 05:13:59;;;;;;;56.20;50.60;;;;;;;-2.09;99.77;97355.66;108870;1297;22250;-87
2023/01/20 05:16:30;;;;;;;61.00;55.00;;;;;;;-2.13;99.90;97355.42;108862;1297;22223;-87
2023/01/20 05:18:59;;;;;;;60.60;54.70;;;;;;;-2.11;99.96;97357.85;108687;1297;22217;-89
2023/01/20 05:21:27;;;;;;;57.40;51.70;;;;;;;-2.06;100.00;97361.23;108672;1297;22253;-87
2023/01/20 05:23:56;;;;;;;53.60;48.30;;;;;;;-2.01;99.99;97361.23;108881;1297;22236;-87
2023/01/20 05:26:25;;;;;;;56.00;50.60;;;;;;;-2.00;99.70;97363.41;108880;1297;22139;-87
2023/01/20 05:28:53;;;;;;;55.60;50.40;;;;;;;-1.98;99.92;97366.77;108850;1297;22251;-86
2023/01/20 05:31:21;;;;;;;55.90;50.40;;;;;;;-1.96;99.89;97363.34;108840;1297;22875;-87
2023/01/20 05:33:49;;;;;;;56.30;50.70;;;;;;;-1.94;99.89;97367.36;108852;1297;22253;-87
2023/01/20 05:36:17;;;;;;;52.80;47.60;;;;;;;-1.97;99.89;97364.77;108845;1297;22231;-88
2023/01/20 05:38:44;;;;;;;48.30;43.80;;;;;;;-2.03;99.91;97371.55;108851;1297;23448;-89
2023/01/20 05:41:13;;;;;;;46.30;41.70;;;;;;;-2.04;99.91;97368.76;108860;1297;22829;-88
2023/01/20 05:43:41;;;;;;;49.40;44.70;;;;;;;-2.07;99.94;97372.14;108865;1297;22241;-87
2023/01/20 05:46:09;;;;;;;46.50;42.00;;;;;;;-2.12;99.79;97372.55;108864;1297;22218;-88
2023/01/20 05:48:37;;;;;;;46.50;42.10;;;;;;;-2.17;99.81;97374.23;108791;1297;22234;-88
2023/01/20 05:51:05;;;;;;;46.20;41.80;;;;;;;-2.19;99.82;97378.08;108847;1297;22701;-91
2023/01/20 05:53:33;;;;;;;42.80;38.70;;;;;;;-2.21;99.91;97378.57;108733;1297;22206;-88
2023/01/20 05:56:04;;;;;;;45.30;40.70;;;;;;;-2.25;99.79;97375.75;109248;1297;22227;-86
2023/01/20 05:58:32;;;;;;;46.40;42.00;;;;;;;-2.26;99.70;97373.97;109328;1297;22369;-86
2023/01/20 06:01:05;;;;;;;48.10;43.70;;;;;;;-2.31;99.87;97379.63;109349;1297;22358;-84
2023/01/20 06:03:33;;;;;;;51.30;46.30;;;;;;;-2.36;99.82;97383.94;109031;1288;22365;-84
2023/01/20 06:06:04;;;;;;;53.10;48.10;;;;;;;-2.41;99.71;97384.71;109187;1289;22305;-91
2023/01/20 06:08:32;;;;;;;47.00;42.50;;;;;;;-2.43;99.78;97384.73;108978;1297;22302;-88
2023/01/20 06:11:04;;;;;;;46.80;42.10;;;;;;;-2.41;99.75;97387.27;109103;1297;22262;-93
2023/01/20 06:13:34;;;;;;;52.80;47.90;;;;;;;-2.37;99.79;97389.29;109006;1297;22193;-89
2023/01/20 06:16:02;;;;;;;53.90;48.80;;;;;;;-2.35;99.83;97386.67;108954;1297;22202;-92
2023/01/20 06:18:34;;;;;;;60.00;54.00;;;;;;;-2.37;99.60;97390.67;108941;1292;22152;-91
2023/01/20 06:21:02;;;;;;;62.20;56.40;;;;;;;-2.40;99.53;97395.20;108916;1297;22219;-89
2023/01/20 06:23:30;;;;;;;61.80;55.80;;;;;;;-2.43;99.59;97396.17;108869;1297;22323;-92
2023/01/20 06:26:00;;;;;;;59.80;54.00;;;;;;;-2.41;99.80;97397.89;108867;1295;22205;-91
2023/01/20 06:28:28;;;;;;;55.50;50.10;;;;;;;-2.39;99.36;97401.95;108900;1297;22262;-89
2023/01/20 06:31:04;;;;;;;56.00;50.40;;;;;;;-2.36;99.55;97402.16;108709;1297;22239;-90
2023/01/20 06:33:33;;;;;;;57.60;52.10;;;;;;;-2.31;99.66;97402.85;108720;1297;22281;-87
2023/01/20 06:36:04;;;;;;;60.60;54.80;;;;;;;-2.29;99.78;97402.52;108870;1297;23028;-89
2023/01/20 06:38:33;;;;;;;68.90;62.20;;;;;;;-2.33;99.62;97405.96;108888;1297;22262;-87
2023/01/20 06:41:04;;;;;;;71.50;64.60;;;;;;;-2.38;99.40;97412.98;108849;1297;22305;-88
2023/01/20 06:43:34;;;;;;;64.30;58.30;;;;;;;-2.46;99.40;97414.98;109068;1297;22364;-88
2023/01/20 06:46:04;;;;;;;69.50;62.90;;;;;;;-2.48;99.23;97407.70;108785;1297;22246;-87
2023/01/20 06:48:32;;;;;;;69.50;62.10;;;;;;;-2.47;99.18;97404.05;108871;1297;22211;-88
2023/01/20 06:51:02;;;;;;;64.70;58.40;;;;;;;-2.45;99.18;97405.88;108830;1297;22232;-90
2023/01/20 06:53:31;;;;;;;58.60;52.60;;;;;;;-2.44;98.89;97417.74;108748;1282;22386;-89
2023/01/20 06:56:00;;;;;;;65.50;58.90;;;;;;;-2.49;98.76;97425.30;108873;1289;22322;-90
2023/01/20 06:58:30;;;;;;;87.80;73.30;;;;;;;-2.57;98.87;97418.84;108537;1283;23099;-89
2023/01/20 07:01:11;;;;;;;66.90;60.20;;;;;;;-2.60;99.10;97416.38;108802;1279;22309;-90
2023/01/20 07:03:43;;;;;;;70.20;63.60;;;;;;;-2.64;98.89;97418.70;108786;1297;22212;-88
2023/01/20 07:06:26;;;;;;;59.20;53.60;;;;;;;-2.63;99.25;97418.48;108799;1295;23361;-87
2023/01/20 07:08:55;;;;;;;49.70;45.00;;;;;;;-2.56;99.43;97419.34;108689;1297;23113;-87
2023/01/20 07:11:30;;;;;;;59.20;53.50;;;;;;;-2.48;99.33;97420.48;108876;1297;22205;-90
2023/01/20 07:13:58;;;;;;;50.20;45.50;;;;;;;-2.41;99.49;97424.19;108572;1298;22304;-90
2023/01/20 07:16:26;;;;;;;59.10;53.50;;;;;;;-2.34;99.76;97430.95;108783;1298;22289;-89
2023/01/20 07:18:54;;;;;;;52.10;47.10;;;;;;;-2.28;99.74;97435.56;108790;1298;22227;-90
2023/01/20 07:21:23;;;;;;;46.70;42.20;;;;;;;-2.22;99.96;97442.70;108767;1297;23012;-89
2023/01/20 07:23:53;;;;;;;50.70;46.00;;;;;;;-2.15;99.63;97444.17;108772;1297;22291;-90
2023/01/20 07:26:25;;;;;;;47.90;43.40;;;;;;;-2.08;99.41;97449.29;108747;1297;22261;-89
2023/01/20 07:28:53;;;;;;;45.20;40.80;;;;;;;-1.98;99.60;97445.20;108758;1297;22976;-89
2023/01/20 07:31:22;;;;;;;44.40;40.30;;;;;;;-1.90;99.52;97451.94;108780;1298;22211;-85
2023/01/20 07:33:51;;;;;;;47.70;43.10;;;;;;;-1.86;99.38;97453.46;108799;1297;22205;-87
2023/01/20 07:36:19;;;;;;;47.50;42.90;;;;;;;-1.81;99.34;97449.64;108782;1298;22204;-89
2023/01/20 07:38:48;;;;;;;49.10;44.50;;;;;;;-1.78;99.51;97445.49;108778;1298;23045;-90
2023/01/20 07:41:18;;;;;;;47.50;42.90;;;;;;;-1.78;99.06;97446.38;108671;1298;22240;-88
2023/01/20 07:43:49;;;;;;;46.20;41.90;;;;;;;-1.77;98.99;97446.94;108806;1297;22257;-88
2023/01/20 07:46:18;;;;;;;43.40;39.20;;;;;;;-1.70;98.91;97447.79;108774;1297;22982;-88
2023/01/20 07:48:46;;;;;;;52.10;47.10;;;;;;;-1.60;99.23;97448.61;108593;1298;22255;-88
2023/01/20 07:51:15;;;;;;;51.80;47.10;;;;;;;-1.56;98.74;97448.23;108774;1297;23012;-91
2023/01/20 07:53:45;;;;;;;55.00;50.00;;;;;;;-1.56;98.64;97446.55;108927;1298;22154;-89
2023/01/20 07:56:21;;;;;;;52.00;46.90;;;;;;;-1.55;98.73;97447.31;108996;1292;22311;-90
2023/01/20 07:58:49;;;;;;;50.50;45.90;;;;;;;-1.50;99.33;97451.27;108683;1297;22160;-90
2023/01/20 08:01:22;;;;;;;43.70;39.50;;;;;;;-1.43;99.46;97453.74;108566;1293;23032;-88
2023/01/20 08:03:50;;;;;;;41.10;37.30;;;;;;;-1.34;99.46;97456.19;108831;1297;22255;-88
2023/01/20 08:06:21;;;;;;;37.90;34.40;;;;;;;-1.24;99.16;97457.74;108797;1297;22476;-89
2023/01/20 08:08:49;;;;;;;35.30;31.70;;;;;;;-1.11;99.28;97456.70;108758;1297;22171;-89
2023/01/20 08:11:19;;;;;;;39.10;35.10;;;;;;;-1.00;99.26;97454.89;108540;1297;22322;-89
2023/01/20 08:13:48;;;;;;;32.60;29.40;;;;;;;-0.97;98.71;97459.43;108752;1297;22266;-88
2023/01/20 08:16:17;;;;;;;30.10;27.20;;;;;;;-1.00;98.57;97465.55;108542;1297;22326;-88
2023/01/20 08:18:45;;;;;;;33.60;30.00;;;;;;;-0.97;99.18;97467.89;108761;1297;22224;-88
2023/01/20 08:21:29;;;;;;;38.70;35.00;;;;;;;-0.92;99.36;97466.61;108763;1292;22858;-89
2023/01/20 08:23:59;;;;;;;32.80;29.70;;;;;;;-0.83;99.77;97468.90;108770;1297;22293;-88
2023/01/20 08:26:30;;;;;;;31.90;28.80;;;;;;;-0.73;99.48;97470.52;108786;1297;22400;-89
2023/01/20 08:29:06;;;;;;;29.10;26.30;;;;;;;-0.64;99.22;97469.77;108768;1297;22341;-87
2023/01/20 08:31:34;;;;;;;31.20;28.30;;;;;;;-0.61;99.12;97479.67;108759;1292;22255;-91
2023/01/20 08:34:03;;;;;;;29.60;26.80;;;;;;;-0.57;99.18;97484.46;108768;1298;22223;-88
2023/01/20 08:36:34;;;;;;;31.50;28.50;;;;;;;-0.56;99.04;97487.83;108785;1292;22299;-88
2023/01/20 08:39:05;;;;;;;32.50;29.50;;;;;;;-0.55;99.09;97485.92;108674;1297;22248;-87
2023/01/20 08:41:35;;;;;;;31.50;28.50;;;;;;;-0.53;98.96;97488.70;109040;1297;22927;-86
2023/01/20 08:44:05;;;;;;;35.50;31.80;;;;;;;-0.46;99.38;97486.72;108558;1298;22999;-87
2023/01/20 08:46:33;;;;;;;115.40;85.40;;;;;;;-0.35;99.21;97484.96;108643;1298;22941;-88
2023/01/20 08:49:01;;;;;;;185.10;122.60;;;;;;;-0.29;98.52;97487.55;108775;1297;22292;-86
2023/01/20 08:51:30;;;;;;;177.80;125.70;;;;;;;-0.31;98.21;97493.59;108822;1292;23166;-86
2023/01/20 08:53:59;;;;;;;184.50;123.40;;;;;;;-0.38;97.97;97495.98;108848;1297;22977;-88
2023/01/20 08:56:28;;;;;;;55.30;49.90;;;;;;;-0.38;98.44;97495.73;108872;1297;22227;-88
2023/01/20 08:58:57;;;;;;;37.30;33.70;;;;;;;-0.36;98.06;97492.29;108851;1297;22282;-88
2023/01/20 09:01:28;;;;;;;38.90;35.10;;;;;;;-0.36;98.07;97493.52;108686;1297;22150;-88
2023/01/20 09:03:57;;;;;;;36.40;32.90;;;;;;;-0.29;98.29;97490.40;108847;1297;22936;-86
2023/01/20 09:06:40;;;;;;;39.40;35.80;;;;;;;-0.20;98.19;97492.36;108869;1297;22932;-86
2023/01/20 09:09:09;;;;;;;43.20;39.20;;;;;;;-0.18;97.90;97502.13;108848;1297;23022;-87
2023/01/20 09:11:39;;;;;;;44.10;39.90;;;;;;;-0.18;98.13;97500.86;108828;1297;22326;-88
2023/01/20 09:14:07;;;;;;;50.20;45.30;;;;;;;-0.16;98.07;97501.74;108869;1297;22881;-86
2023/01/20 09:16:39;;;;;;;47.60;42.70;;;;;;;-0.15;98.18;97499.20;108862;1297;22189;-89
2023/01/20 09:19:07;;;;;;;52.70;47.40;;;;;;;-0.13;97.62;97500.23;108888;1296;22194;-86
2023/01/20 09:21:35;;;;;;;49.60;44.70;;;;;;;-0.15;97.35;97495.63;108754;1297;22195;-83
2023/01/20 09:24:03;;;;;;;55.50;49.90;;;;;;;-0.16;97.26;97497.36;108895;1297;22263;-87
2023/01/20 09:26:37;;;;;;;60.80;54.80;;;;;;;-0.09;98.03;97493.77;108866;1297;22251;-88
2023/01/20 09:29:09;;;;;;;60.10;53.90;;;;;;;-0.02;97.69;97498.33;108911;1297;22043;-87
2023/01/20 09:31:42;;;;;;;55.00;49.40;;;;;;;-0.04;97.31;97500.41;108941;1296;22995;-87
2023/01/20 09:34:18;;;;;;;53.70;48.20;;;;;;;-0.02;97.49;97507.38;108737;1288;22208;-91
2023/01/20 09:36:55;;;;;;;49.80;44.80;;;;;;;0.05;97.52;97508.77;108885;1297;22255;-91
2023/01/20 09:45:37;;;;;;;161.20;101.20;;;;;;;0.03;96.94;97507.50;108813;1297;22197;-87
2023/01/20 09:54:12;;;;;;;174.40;113.10;;;;;;;-0.13;97.16;97501.31;108924;1297;22266;-88
2023/01/20 09:56:46;;;;;;;154.60;101.20;;;;;;;-0.17;97.04;97503.85;108928;1297;22233;-88
2023/01/20 09:59:24;;;;;;;149.50;102.20;;;;;;;-0.16;97.39;97505.02;108669;1297;22245;-87
2023/01/20 10:01:59;;;;;;;147.90;102.40;;;;;;;-0.13;97.88;97500.84;108846;1297;22261;-89
2023/01/20 10:04:36;;;;;;;192.20;126.10;;;;;;;-0.09;98.02;97499.06;108845;1297;22222;-88
2023/01/20 10:07:28;;;;;;;185.20;113.20;;;;;;;-0.10;97.59;97497.94;108841;1297;22275;-89
2023/01/20 10:10:03;;;;;;;163.00;104.50;;;;;;;-0.06;97.68;97501.02;108837;1297;22966;-90
2023/01/20 10:12:49;;;;;;;161.00;101.50;;;;;;;0.01;97.69;97499.80;108868;1289;22285;-86
2023/01/20 10:15:24;;;;;;;62.60;56.10;;;;;;;0.11;97.76;97498.83;108863;1297;22152;-87
2023/01/20 10:17:58;;;;;;;67.20;60.10;;;;;;;0.18;97.50;97498.27;108947;1297;23000;-88
2023/01/20 10:20:33;;;;;;;56.90;51.20;;;;;;;0.17;97.11;97496.13;108809;1297;23000;-89
2023/01/20 10:23:12;;;;;;;47.10;42.20;;;;;;;0.09;96.10;97497.58;108983;1289;22657;-87
2023/01/20 10:26:06;;;;;;;48.50;43.60;;;;;;;-0.02;96.49;97490.95;109279;1292;22210;-84
2023/01/20 10:29:02;;;;;;;43.50;39.30;;;;;;;0.10;97.30;97492.99;109018;1297;22209;-85
2023/01/20 10:31:36;;;;;;;43.90;39.70;;;;;;;0.21;97.31;97490.48;108894;1297;22313;-87
2023/01/20 10:34:11;;;;;;;;;;;;;;;0.30;97.34;97490.18;108901;1297;22336;-89
2023/01/20 10:36:43;;;;;;;42.30;38.20;;;;;;;0.34;97.32;97493.58;109051;1297;23071;-85
2023/01/20 10:39:30;;;;;;;42.60;38.30;;;;;;;0.38;97.04;97497.19;108766;1297;22232;-86
2023/01/20 10:42:08;;;;;;;41.30;37.40;;;;;;;0.39;97.01;97499.91;108838;1289;22452;-86
2023/01/20 10:44:36;;;;;;;44.10;39.90;;;;;;;0.37;96.49;97505.23;108783;1297;22225;-86
2023/01/20 10:47:20;;;;;;;41.40;37.50;;;;;;;0.39;96.70;97504.38;108915;1290;22217;-86
2023/01/20 10:50:18;;;;;;;44.00;39.70;;;;;;;0.50;97.03;97501.50;108858;1297;22300;-83
2023/01/20 10:53:15;;;;;;;45.80;41.40;;;;;;;0.46;95.83;97499.68;108852;1297;22236;-87
2023/01/20 10:56:15;;;;;;;44.60;40.10;;;;;;;0.39;96.17;97506.13;108847;1297;22239;-87
2023/01/20 10:58:45;;;;;;;43.20;39.10;;;;;;;0.37;96.16;97507.29;108453;1297;22758;-89
2023/01/20 11:01:17;;;;;;;40.70;36.60;;;;;;;0.42;96.19;97509.23;108846;1297;22428;-88
2023/01/20 11:03:47;;;;;;;40.00;35.80;;;;;;;0.43;95.92;97505.38;108967;1295;22220;-88
2023/01/20 11:06:25;;;;;;;38.60;34.80;;;;;;;0.44;95.66;97504.92;108942;1289;22935;-88
2023/01/20 11:08:55;;;;;;;41.30;37.30;;;;;;;0.39;95.82;97503.11;108738;1297;22182;-88
2023/01/20 11:11:28;;;;;;;43.50;39.40;;;;;;;0.39;95.86;97506.59;108766;1289;22229;-89
2023/01/20 11:13:58;;;;;;;39.30;35.40;;;;;;;0.31;95.25;97506.22;108844;1297;22307;-89
2023/01/20 11:16:27;;;;;;;41.30;37.30;;;;;;;0.22;95.42;97502.56;108871;1289;23042;-89
2023/01/20 11:18:59;;;;;;;40.10;36.30;;;;;;;0.22;95.87;97498.96;108671;1285;22326;-87
2023/01/20 11:21:29;;;;;;;38.80;35.00;;;;;;;0.25;95.61;97493.80;108831;1297;24523;-87
2023/01/20 11:23:58;;;;;;;40.60;36.80;;;;;;;0.18;95.02;97492.65;108862;1297;22239;-90
2023/01/20 11:26:32;;;;;;;42.00;37.90;;;;;;;0.02;94.99;97493.35;108845;1297;22196;-90
2023/01/20 11:29:21;;;;;;;39.30;35.60;;;;;;;-0.06;95.42;97485.91;108836;1289;22230;-86
2023/01/20 11:31:58;;;;;;;38.10;34.30;;;;;;;-0.00;95.65;97474.46;108945;1285;22236;-87
2023/01/20 11:34:28;;;;;;;39.50;35.80;;;;;;;0.03;95.54;97466.30;108571;1297;172687;-89
2023/01/20 11:37:05;;;;;;;40.10;36.30;;;;;;;0.03;95.53;97466.84;108848;1295;22259;-88
2023/01/20 11:39:41;;;;;;;42.30;38.20;;;;;;;0.06;95.62;97456.12;108863;1297;22139;-86
2023/01/20 11:42:24;;;;;;;40.90;36.80;;;;;;;0.05;95.33;97454.45;108870;1292;22375;-88